Northern Jaeger — WNBG — position and weather

sailwx.info

Track history (hours):
 
Tides and Currents Weather Stations Pressure Air Temp Water Temp Dewpoint Dewpoint Depression Visibility Wind Speed Wind Dir Waves Ship Positions

Northern Jaeger

Owner: American Seafoods Company LLC, Seattle, WA. More information available from US FCC via Universal Licensing System and Coast Guard Vessel Documentation Center.

Last reported at 2017-Oct-16 18:59 UTC. Time now 2017-Oct-19 09:06 UTC.
Position N 44°25' W 124°49'.

Length 101 m; draft 7.3 m.

Type: Fishing. MMSI: 366046000.

Date/timePositionNaut miles runAvg speedWind from/ knotsBaromVisibWave heightAir tempDewpointWater temp
2017-Oct-16 18:59N 44°25' W 124°49'20 6.3
2017-Oct-16 15:46N 44°06' W 124°59'4 0.1
2017-Oct-14 21:37N 44°07' W 125°04'1 3.6
2017-Oct-14 21:20N 44°06' W 125°04'1 3.5
2017-Oct-14 21:00N 44°04' W 125°04'2 3.5
2017-Oct-14 20:30N 44°03' W 125°03'2 3.3
2017-Oct-14 20:01N 44°01' W 125°02'3 2.8
2017-Oct-14 18:46N 44°05' W 125°00'  
2017-Oct-10 17:29N 45°34' W 124°56'713.7
2017-Oct-10 16:59N 45°41' W 124°57'714.0
2017-Oct-10 16:30N 45°48' W 124°58'714.0
2017-Oct-10 16:00N 45°54' W 124°59'814.0
2017-Oct-10 15:26N 46°02' W 125°01'511.0
2017-Oct-10 15:00N 46°07' W 125°02'1413.7
2017-Oct-10 14:00N 46°21' W 125°05'713.7
2017-Oct-10 13:30N 46°27' W 125°06'12412.6
2017-Oct-10 03:40N 48°30' W 124°51'314.5
2017-Oct-10 03:29N 48°30' W 124°46'714.3
2017-Oct-10 03:00N 48°29' W 124°37'713.9
2017-Oct-10 02:31N 48°26' W 124°27'713.4
2017-Oct-10 02:00N 48°23' W 124°17'713.2
2017-Oct-10 01:30N 48°21' W 124°08'2212.9
2017-Oct-09 23:46N 48°16' W 123°35'612.8
2017-Oct-09 23:19N 48°15' W 123°27'413.0
2017-Oct-09 22:59N 48°15' W 123°20'1312.9
2017-Oct-09 21:56N 48°19' W 123°01'613.1
2017-Oct-09 21:30N 48°22' W 122°54'813.4
2017-Oct-09 20:54N 48°28' W 122°45'1014.9
2017-Oct-09 20:15N 48°36' W 122°39'  
2017-Oct-07 10:43N 48°39' W 122°34'3 9.1
2017-Oct-07 10:22N 48°37' W 122°38'510.8
2017-Oct-07 09:55N 48°32' W 122°40'513.3
2017-Oct-07 09:30N 48°28' W 122°44'611.8
2017-Oct-07 09:00N 48°23' W 122°50'2111.8
2017-Oct-07 07:14N 48°13' W 123°17'410.9
2017-Oct-07 06:50N 48°13' W 123°24'410.7
2017-Oct-07 06:25N 48°14' W 123°30'610.0
2017-Oct-07 05:50N 48°13' W 123°39'22 9.3
2017-Oct-07 03:31N 48°18' W 124°11'210.3
2017-Oct-07 03:17N 48°19' W 124°14'410.7
2017-Oct-07 02:54N 48°21' W 124°20'410.9
2017-Oct-07 02:30N 48°23' W 124°25'510.8
2017-Oct-07 02:00N 48°25' W 124°33'511.0
2017-Oct-07 01:30N 48°28' W 124°40'610.8
2017-Oct-07 00:59N 48°29' W 124°49'612.3
2017-Oct-07 00:30N 48°27' W 124°57'  
Track history (hours):
 
Tides and Currents Weather Stations Pressure Air Temp Water Temp Dewpoint Dewpoint Depression Visibility Wind Speed Wind Dir Waves Ship Positions

Northern Jaeger

Owner: American Seafoods Company LLC, Seattle, WA. More information available from US FCC via Universal Licensing System and Coast Guard Vessel Documentation Center.

Last reported at 2017-Oct-16 18:59 UTC. Time now 2017-Oct-19 09:06 UTC.
Position N 44°25' W 124°49'.

Length 101 m; draft 7.3 m.

Type: Fishing. MMSI: 366046000.

Date/timePositionNaut miles runAvg speedWind from/ knotsBaromVisibWave heightAir tempDewpointWater temp
2017-Oct-16 18:59N 44°25' W 124°49'20 6.3
2017-Oct-16 15:46N 44°06' W 124°59'4 0.1
2017-Oct-14 21:37N 44°07' W 125°04'1 3.6
2017-Oct-14 21:20N 44°06' W 125°04'1 3.5
2017-Oct-14 21:00N 44°04' W 125°04'2 3.5
2017-Oct-14 20:30N 44°03' W 125°03'2 3.3
2017-Oct-14 20:01N 44°01' W 125°02'3 2.8
2017-Oct-14 18:46N 44°05' W 125°00'  
2017-Oct-10 17:29N 45°34' W 124°56'713.7
2017-Oct-10 16:59N 45°41' W 124°57'714.0
2017-Oct-10 16:30N 45°48' W 124°58'714.0
2017-Oct-10 16:00N 45°54' W 124°59'814.0
2017-Oct-10 15:26N 46°02' W 125°01'511.0
2017-Oct-10 15:00N 46°07' W 125°02'1413.7
2017-Oct-10 14:00N 46°21' W 125°05'713.7
2017-Oct-10 13:30N 46°27' W 125°06'12412.6
2017-Oct-10 03:40N 48°30' W 124°51'314.5
2017-Oct-10 03:29N 48°30' W 124°46'714.3
2017-Oct-10 03:00N 48°29' W 124°37'713.9
2017-Oct-10 02:31N 48°26' W 124°27'713.4
2017-Oct-10 02:00N 48°23' W 124°17'713.2
2017-Oct-10 01:30N 48°21' W 124°08'2212.9
2017-Oct-09 23:46N 48°16' W 123°35'612.8
2017-Oct-09 23:19N 48°15' W 123°27'413.0
2017-Oct-09 22:59N 48°15' W 123°20'1312.9
2017-Oct-09 21:56N 48°19' W 123°01'613.1
2017-Oct-09 21:30N 48°22' W 122°54'813.4
2017-Oct-09 20:54N 48°28' W 122°45'1014.9
2017-Oct-09 20:15N 48°36' W 122°39'  
2017-Oct-07 10:43N 48°39' W 122°34'3 9.1
2017-Oct-07 10:22N 48°37' W 122°38'510.8
2017-Oct-07 09:55N 48°32' W 122°40'513.3
2017-Oct-07 09:30N 48°28' W 122°44'611.8
2017-Oct-07 09:00N 48°23' W 122°50'2111.8
2017-Oct-07 07:14N 48°13' W 123°17'410.9
2017-Oct-07 06:50N 48°13' W 123°24'410.7
2017-Oct-07 06:25N 48°14' W 123°30'610.0
2017-Oct-07 05:50N 48°13' W 123°39'22 9.3
2017-Oct-07 03:31N 48°18' W 124°11'210.3
2017-Oct-07 03:17N 48°19' W 124°14'410.7
2017-Oct-07 02:54N 48°21' W 124°20'410.9
2017-Oct-07 02:30N 48°23' W 124°25'510.8
2017-Oct-07 02:00N 48°25' W 124°33'511.0
2017-Oct-07 01:30N 48°28' W 124°40'610.8
2017-Oct-07 00:59N 48°29' W 124°49'612.3
2017-Oct-07 00:30N 48°27' W 124°57'  

Dump ship's entire track history